sensor_id;sensor_type;location;lat;lon;timestamp;temperature;humidity
46752;DHT22;32497;48.936;9.270;2023-05-31T00:03:50;15.20;45.80
46752;DHT22;32497;48.936;9.270;2023-05-31T00:08:52;15.10;46.90
46752;DHT22;32497;48.936;9.270;2023-05-31T00:13:53;15.00;47.00
46752;DHT22;32497;48.936;9.270;2023-05-31T00:18:54;14.90;46.60
46752;DHT22;32497;48.936;9.270;2023-05-31T00:23:57;14.90;47.10
46752;DHT22;32497;48.936;9.270;2023-05-31T00:28:58;14.80;47.50
46752;DHT22;32497;48.936;9.270;2023-05-31T00:33:59;14.80;47.50
46752;DHT22;32497;48.936;9.270;2023-05-31T00:39:02;14.70;48.10
46752;DHT22;32497;48.936;9.270;2023-05-31T00:44:03;14.70;48.90
46752;DHT22;32497;48.936;9.270;2023-05-31T00:49:04;14.70;48.90
46752;DHT22;32497;48.936;9.270;2023-05-31T00:54:07;14.60;48.80
46752;DHT22;32497;48.936;9.270;2023-05-31T00:59:09;14.50;48.30
46752;DHT22;32497;48.936;9.270;2023-05-31T01:04:10;14.60;47.30
46752;DHT22;32497;48.936;9.270;2023-05-31T01:09:13;14.70;48.50
46752;DHT22;32497;48.936;9.270;2023-05-31T01:14:20;14.70;47.40
46752;DHT22;32497;48.936;9.270;2023-05-31T01:19:32;14.70;47.00
46752;DHT22;32497;48.936;9.270;2023-05-31T01:24:45;14.50;48.70
46752;DHT22;32497;48.936;9.270;2023-05-31T01:29:55;14.20;50.30
46752;DHT22;32497;48.936;9.270;2023-05-31T01:34:58;14.00;51.70
46752;DHT22;32497;48.936;9.270;2023-05-31T01:39:59;13.80;50.40
46752;DHT22;32497;48.936;9.270;2023-05-31T01:45:02;13.90;50.60
46752;DHT22;32497;48.936;9.270;2023-05-31T01:50:05;13.90;51.70
46752;DHT22;32497;48.936;9.270;2023-05-31T01:55:07;13.70;51.80
46752;DHT22;32497;48.936;9.270;2023-05-31T02:00:12;13.60;52.80
46752;DHT22;32497;48.936;9.270;2023-05-31T02:05:16;13.40;53.40
46752;DHT22;32497;48.936;9.270;2023-05-31T02:10:17;13.40;53.20
46752;DHT22;32497;48.936;9.270;2023-05-31T02:15:20;13.40;53.60
46752;DHT22;32497;48.936;9.270;2023-05-31T02:20:21;13.30;54.30
46752;DHT22;32497;48.936;9.270;2023-05-31T02:25:22;13.20;54.30
46752;DHT22;32497;48.936;9.270;2023-05-31T02:30:26;13.10;54.20
46752;DHT22;32497;48.936;9.270;2023-05-31T02:35:27;13.00;54.90
46752;DHT22;32497;48.936;9.270;2023-05-31T02:40:28;13.00;54.40
46752;DHT22;32497;48.936;9.270;2023-05-31T02:45:31;12.90;54.60
46752;DHT22;32497;48.936;9.270;2023-05-31T02:50:32;12.90;55.10
46752;DHT22;32497;48.936;9.270;2023-05-31T02:55:35;12.70;55.90
46752;DHT22;32497;48.936;9.270;2023-05-31T03:00:56;12.80;56.70
46752;DHT22;32497;48.936;9.270;2023-05-31T03:05:59;12.70;55.40
46752;DHT22;32497;48.936;9.270;2023-05-31T03:11:00;12.70;54.70
46752;DHT22;32497;48.936;9.270;2023-05-31T03:16:03;12.80;54.30
46752;DHT22;32497;48.936;9.270;2023-05-31T03:21:04;12.80;54.60
46752;DHT22;32497;48.936;9.270;2023-05-31T03:26:05;12.70;54.70
46752;DHT22;32497;48.936;9.270;2023-05-31T03:31:08;12.80;54.80
46752;DHT22;32497;48.936;9.270;2023-05-31T03:36:09;12.90;54.80
46752;DHT22;32497;48.936;9.270;2023-05-31T03:41:10;12.90;54.00
46752;DHT22;32497;48.936;9.270;2023-05-31T03:46:13;13.00;54.10
46752;DHT22;32497;48.936;9.270;2023-05-31T03:51:14;13.10;54.50
46752;DHT22;32497;48.936;9.270;2023-05-31T03:56:16;13.20;54.00
46752;DHT22;32497;48.936;9.270;2023-05-31T04:01:18;13.20;53.50
46752;DHT22;32497;48.936;9.270;2023-05-31T04:06:22;13.30;53.10
46752;DHT22;32497;48.936;9.270;2023-05-31T04:11:23;13.50;53.90
46752;DHT22;32497;48.936;9.270;2023-05-31T04:16:26;13.60;53.60
46752;DHT22;32497;48.936;9.270;2023-05-31T04:21:27;13.60;52.70
46752;DHT22;32497;48.936;9.270;2023-05-31T04:26:28;13.70;53.30
46752;DHT22;32497;48.936;9.270;2023-05-31T04:31:31;13.70;53.10
46752;DHT22;32497;48.936;9.270;2023-05-31T04:36:33;13.80;53.70
46752;DHT22;32497;48.936;9.270;2023-05-31T04:41:34;13.90;52.70
46752;DHT22;32497;48.936;9.270;2023-05-31T04:46:36;14.00;52.80
46752;DHT22;32497;48.936;9.270;2023-05-31T04:51:37;14.20;52.40
46752;DHT22;32497;48.936;9.270;2023-05-31T04:56:39;14.30;52.30
46752;DHT22;32497;48.936;9.270;2023-05-31T05:01:42;14.50;52.90
46752;DHT22;32497;48.936;9.270;2023-05-31T05:06:49;14.60;52.50
46752;DHT22;32497;48.936;9.270;2023-05-31T05:11:51;14.60;52.30
46752;DHT22;32497;48.936;9.270;2023-05-31T05:16:53;14.70;52.70
46752;DHT22;32497;48.936;9.270;2023-05-31T05:21:55;14.80;51.80
46752;DHT22;32497;48.936;9.270;2023-05-31T05:26:57;15.10;51.20
46752;DHT22;32497;48.936;9.270;2023-05-31T05:31:59;16.40;48.80
46752;DHT22;32497;48.936;9.270;2023-05-31T05:37:01;16.20;49.00
46752;DHT22;32497;48.936;9.270;2023-05-31T05:42:03;16.20;48.80
46752;DHT22;32497;48.936;9.270;2023-05-31T05:47:06;16.10;50.30
46752;DHT22;32497;48.936;9.270;2023-05-31T05:52:07;16.00;50.20
46752;DHT22;32497;48.936;9.270;2023-05-31T05:57:08;16.00;50.20
46752;DHT22;32497;48.936;9.270;2023-05-31T06:02:15;16.10;49.90
46752;DHT22;32497;48.936;9.270;2023-05-31T06:07:17;16.20;51.00
46752;DHT22;32497;48.936;9.270;2023-05-31T06:12:18;16.70;49.00
46752;DHT22;32497;48.936;9.270;2023-05-31T06:17:21;17.70;46.00
46752;DHT22;32497;48.936;9.270;2023-05-31T06:22:22;19.20;44.80
46752;DHT22;32497;48.936;9.270;2023-05-31T06:27:24;21.80;38.20
46752;DHT22;32497;48.936;9.270;2023-05-31T06:32:27;23.20;35.40
46752;DHT22;32497;48.936;9.270;2023-05-31T06:37:28;23.70;34.20
46752;DHT22;32497;48.936;9.270;2023-05-31T06:42:30;23.20;33.70
46752;DHT22;32497;48.936;9.270;2023-05-31T06:47:54;23.30;33.40
46752;DHT22;32497;48.936;9.270;2023-05-31T06:53:14;23.90;33.50
46752;DHT22;32497;48.936;9.270;2023-05-31T06:58:18;23.60;33.00
46752;DHT22;32497;48.936;9.270;2023-05-31T07:03:23;23.70;32.90
46752;DHT22;32497;48.936;9.270;2023-05-31T07:08:24;23.50;33.40
46752;DHT22;32497;48.936;9.270;2023-05-31T07:13:43;24.10;33.20
46752;DHT22;32497;48.936;9.270;2023-05-31T07:18:46;24.50;32.10
46752;DHT22;32497;48.936;9.270;2023-05-31T07:23:47;24.20;32.80
46752;DHT22;32497;48.936;9.270;2023-05-31T07:28:49;24.50;31.90
46752;DHT22;32497;48.936;9.270;2023-05-31T07:33:51;24.70;31.90
46752;DHT22;32497;48.936;9.270;2023-05-31T07:38:53;24.40;32.60
46752;DHT22;32497;48.936;9.270;2023-05-31T07:43:54;24.80;32.20
46752;DHT22;32497;48.936;9.270;2023-05-31T07:48:56;24.60;32.50
46752;DHT22;32497;48.936;9.270;2023-05-31T07:53:57;24.50;32.60
46752;DHT22;32497;48.936;9.270;2023-05-31T07:58:58;25.20;31.80
46752;DHT22;32497;48.936;9.270;2023-05-31T08:04:06;25.60;31.00
46752;DHT22;32497;48.936;9.270;2023-05-31T08:09:08;25.80;30.90
46752;DHT22;32497;48.936;9.270;2023-05-31T08:14:09;25.80;31.30
46752;DHT22;32497;48.936;9.270;2023-05-31T08:19:12;25.60;31.50
46752;DHT22;32497;48.936;9.270;2023-05-31T08:24:13;25.60;31.20
46752;DHT22;32497;48.936;9.270;2023-05-31T08:29:14;25.90;31.20
46752;DHT22;32497;48.936;9.270;2023-05-31T08:34:16;26.30;29.60
46752;DHT22;32497;48.936;9.270;2023-05-31T08:39:17;27.00;29.60
46752;DHT22;32497;48.936;9.270;2023-05-31T08:44:20;26.80;29.80
46752;DHT22;32497;48.936;9.270;2023-05-31T08:49:22;26.30;30.70
46752;DHT22;32497;48.936;9.270;2023-05-31T08:54:24;26.40;31.20
46752;DHT22;32497;48.936;9.270;2023-05-31T08:59:26;26.30;30.50
46752;DHT22;32497;48.936;9.270;2023-05-31T09:04:28;25.90;31.00
46752;DHT22;32497;48.936;9.270;2023-05-31T09:09:29;26.50;30.50
46752;DHT22;32497;48.936;9.270;2023-05-31T09:14:31;26.90;30.10
46752;DHT22;32497;48.936;9.270;2023-05-31T09:19:34;27.60;29.30
46752;DHT22;32497;48.936;9.270;2023-05-31T09:24:35;27.30;27.80
46752;DHT22;32497;48.936;9.270;2023-05-31T09:29:36;27.40;27.30
46752;DHT22;32497;48.936;9.270;2023-05-31T09:34:39;27.50;28.20
46752;DHT22;32497;48.936;9.270;2023-05-31T09:39:53;27.10;28.80
46752;DHT22;32497;48.936;9.270;2023-05-31T09:44:54;27.20;28.70
46752;DHT22;32497;48.936;9.270;2023-05-31T09:49:56;27.20;29.20
46752;DHT22;32497;48.936;9.270;2023-05-31T09:55:05;27.70;27.40
46752;DHT22;32497;48.936;9.270;2023-05-31T10:00:07;26.80;28.50
46752;DHT22;32497;48.936;9.270;2023-05-31T10:05:15;26.90;28.70
46752;DHT22;32497;48.936;9.270;2023-05-31T10:10:17;26.80;28.40
46752;DHT22;32497;48.936;9.270;2023-05-31T10:15:21;27.70;27.60
46752;DHT22;32497;48.936;9.270;2023-05-31T10:20:27;27.80;26.90
46752;DHT22;32497;48.936;9.270;2023-05-31T10:25:34;28.40;26.60
46752;DHT22;32497;48.936;9.270;2023-05-31T10:30:38;27.60;27.50
46752;DHT22;32497;48.936;9.270;2023-05-31T10:35:41;28.30;28.00
46752;DHT22;32497;48.936;9.270;2023-05-31T10:40:52;28.50;26.70
46752;DHT22;32497;48.936;9.270;2023-05-31T10:45:59;28.00;27.20
46752;DHT22;32497;48.936;9.270;2023-05-31T10:51:03;28.30;25.80
46752;DHT22;32497;48.936;9.270;2023-05-31T10:56:05;28.30;25.60
46752;DHT22;32497;48.936;9.270;2023-05-31T11:01:07;28.70;25.40
46752;DHT22;32497;48.936;9.270;2023-05-31T11:06:13;29.20;24.90
46752;DHT22;32497;48.936;9.270;2023-05-31T11:11:28;28.80;25.60
46752;DHT22;32497;48.936;9.270;2023-05-31T11:16:30;29.20;23.90
46752;DHT22;32497;48.936;9.270;2023-05-31T11:21:49;29.00;23.70
46752;DHT22;32497;48.936;9.270;2023-05-31T11:26:52;28.80;25.00
46752;DHT22;32497;48.936;9.270;2023-05-31T11:31:56;28.80;25.70
46752;DHT22;32497;48.936;9.270;2023-05-31T11:37:01;29.30;24.70
46752;DHT22;32497;48.936;9.270;2023-05-31T11:42:02;29.30;25.00
46752;DHT22;32497;48.936;9.270;2023-05-31T11:47:05;28.80;24.20
46752;DHT22;32497;48.936;9.270;2023-05-31T11:52:08;29.20;25.20
46752;DHT22;32497;48.936;9.270;2023-05-31T11:57:09;28.70;25.10
46752;DHT22;32497;48.936;9.270;2023-05-31T12:02:10;28.80;24.40
46752;DHT22;32497;48.936;9.270;2023-05-31T12:07:16;28.80;25.00
46752;DHT22;32497;48.936;9.270;2023-05-31T12:12:17;29.30;23.20
46752;DHT22;32497;48.936;9.270;2023-05-31T12:17:18;28.80;23.20
46752;DHT22;32497;48.936;9.270;2023-05-31T12:22:21;29.10;23.40
46752;DHT22;32497;48.936;9.270;2023-05-31T12:27:24;29.50;24.00
46752;DHT22;32497;48.936;9.270;2023-05-31T12:32:26;30.20;23.30
46752;DHT22;32497;48.936;9.270;2023-05-31T12:37:35;30.40;22.20
46752;DHT22;32497;48.936;9.270;2023-05-31T12:42:42;30.80;22.80
46752;DHT22;32497;48.936;9.270;2023-05-31T12:47:44;31.10;22.50
46752;DHT22;32497;48.936;9.270;2023-05-31T12:52:57;31.50;20.80
46752;DHT22;32497;48.936;9.270;2023-05-31T12:57:59;31.60;20.90
46752;DHT22;32497;48.936;9.270;2023-05-31T13:03:06;31.60;20.10
46752;DHT22;32497;48.936;9.270;2023-05-31T13:08:11;31.50;20.80
46752;DHT22;32497;48.936;9.270;2023-05-31T13:13:13;30.90;21.00
46752;DHT22;32497;48.936;9.270;2023-05-31T13:18:17;31.30;21.30
46752;DHT22;32497;48.936;9.270;2023-05-31T13:23:26;31.80;20.30
46752;DHT22;32497;48.936;9.270;2023-05-31T13:28:30;32.20;19.10
46752;DHT22;32497;48.936;9.270;2023-05-31T13:33:35;32.60;19.60
46752;DHT22;32497;48.936;9.270;2023-05-31T13:38:40;32.40;19.60
46752;DHT22;32497;48.936;9.270;2023-05-31T13:43:41;32.60;18.60
46752;DHT22;32497;48.936;9.270;2023-05-31T13:48:42;32.40;18.50
46752;DHT22;32497;48.936;9.270;2023-05-31T13:53:44;32.00;19.40
46752;DHT22;32497;48.936;9.270;2023-05-31T13:58:45;32.00;19.20
46752;DHT22;32497;48.936;9.270;2023-05-31T14:03:46;32.60;18.50
46752;DHT22;32497;48.936;9.270;2023-05-31T14:08:49;32.00;18.80
46752;DHT22;32497;48.936;9.270;2023-05-31T14:13:50;32.70;18.90
46752;DHT22;32497;48.936;9.270;2023-05-31T14:18:51;32.50;19.10
46752;DHT22;32497;48.936;9.270;2023-05-31T14:23:54;32.60;18.80
46752;DHT22;32497;48.936;9.270;2023-05-31T14:28:55;33.20;17.90
46752;DHT22;32497;48.936;9.270;2023-05-31T14:33:56;33.00;18.60
46752;DHT22;32497;48.936;9.270;2023-05-31T14:38:58;33.00;18.10
46752;DHT22;32497;48.936;9.270;2023-05-31T14:44:00;32.50;19.10
46752;DHT22;32497;48.936;9.270;2023-05-31T14:49:09;32.00;18.00
46752;DHT22;32497;48.936;9.270;2023-05-31T14:54:18;32.70;19.30
46752;DHT22;32497;48.936;9.270;2023-05-31T14:59:20;32.40;18.70
46752;DHT22;32497;48.936;9.270;2023-05-31T15:04:21;32.80;18.70
46752;DHT22;32497;48.936;9.270;2023-05-31T15:09:23;32.90;18.10
46752;DHT22;32497;48.936;9.270;2023-05-31T15:14:25;32.70;19.10
46752;DHT22;32497;48.936;9.270;2023-05-31T15:19:28;33.00;18.80
46752;DHT22;32497;48.936;9.270;2023-05-31T15:24:34;32.00;18.80
46752;DHT22;32497;48.936;9.270;2023-05-31T15:29:36;31.80;20.20
46752;DHT22;32497;48.936;9.270;2023-05-31T15:34:40;31.20;20.10
46752;DHT22;32497;48.936;9.270;2023-05-31T15:39:46;31.80;20.00
46752;DHT22;32497;48.936;9.270;2023-05-31T15:44:47;31.40;20.10
46752;DHT22;32497;48.936;9.270;2023-05-31T15:49:48;31.20;20.00
46752;DHT22;32497;48.936;9.270;2023-05-31T15:54:50;30.80;20.70
46752;DHT22;32497;48.936;9.270;2023-05-31T15:59:52;30.60;21.00
46752;DHT22;32497;48.936;9.270;2023-05-31T16:04:53;30.80;21.70
46752;DHT22;32497;48.936;9.270;2023-05-31T16:09:56;30.80;22.30
46752;DHT22;32497;48.936;9.270;2023-05-31T16:14:57;30.50;21.60
46752;DHT22;32497;48.936;9.270;2023-05-31T16:19:58;30.20;22.30
46752;DHT22;32497;48.936;9.270;2023-05-31T16:25:01;29.70;22.60
46752;DHT22;32497;48.936;9.270;2023-05-31T16:30:02;29.50;23.10
46752;DHT22;32497;48.936;9.270;2023-05-31T16:35:04;29.60;22.60
46752;DHT22;32497;48.936;9.270;2023-05-31T16:40:08;29.10;23.80
46752;DHT22;32497;48.936;9.270;2023-05-31T16:45:09;28.70;24.30
46752;DHT22;32497;48.936;9.270;2023-05-31T16:50:10;28.20;24.50
46752;DHT22;32497;48.936;9.270;2023-05-31T16:55:13;28.20;25.30
46752;DHT22;32497;48.936;9.270;2023-05-31T17:00:14;27.70;24.80
46752;DHT22;32497;48.936;9.270;2023-05-31T17:05:16;27.10;26.10
46752;DHT22;32497;48.936;9.270;2023-05-31T17:10:18;26.80;26.40
46752;DHT22;32497;48.936;9.270;2023-05-31T17:15:19;26.70;27.20
46752;DHT22;32497;48.936;9.270;2023-05-31T17:20:20;26.30;26.50
46752;DHT22;32497;48.936;9.270;2023-05-31T17:25:23;26.20;27.00
46752;DHT22;32497;48.936;9.270;2023-05-31T17:30:25;26.10;27.40
46752;DHT22;32497;48.936;9.270;2023-05-31T17:35:26;25.70;27.50
46752;DHT22;32497;48.936;9.270;2023-05-31T17:40:28;25.50;28.70
46752;DHT22;32497;48.936;9.270;2023-05-31T17:45:30;25.30;28.70
46752;DHT22;32497;48.936;9.270;2023-05-31T17:50:31;25.20;29.20
46752;DHT22;32497;48.936;9.270;2023-05-31T17:55:33;25.00;29.10
46752;DHT22;32497;48.936;9.270;2023-05-31T18:00:34;24.80;29.60
46752;DHT22;32497;48.936;9.270;2023-05-31T18:05:35;24.50;31.30
46752;DHT22;32497;48.936;9.270;2023-05-31T18:10:38;24.30;33.10
46752;DHT22;32497;48.936;9.270;2023-05-31T18:15:39;24.10;32.60
46752;DHT22;32497;48.936;9.270;2023-05-31T18:20:40;23.80;32.60
46752;DHT22;32497;48.936;9.270;2023-05-31T18:25:42;23.50;32.40
46752;DHT22;32497;48.936;9.270;2023-05-31T18:30:44;23.30;33.10
46752;DHT22;32497;48.936;9.270;2023-05-31T18:35:45;23.20;33.60
46752;DHT22;32497;48.936;9.270;2023-05-31T18:40:47;22.90;34.10
46752;DHT22;32497;48.936;9.270;2023-05-31T18:45:48;22.70;34.50
46752;DHT22;32497;48.936;9.270;2023-05-31T18:50:49;22.40;34.30
46752;DHT22;32497;48.936;9.270;2023-05-31T18:55:52;22.20;35.50
46752;DHT22;32497;48.936;9.270;2023-05-31T19:00:53;22.00;35.80
46752;DHT22;32497;48.936;9.270;2023-05-31T19:05:55;21.70;36.00
46752;DHT22;32497;48.936;9.270;2023-05-31T19:11:31;21.60;35.90
46752;DHT22;32497;48.936;9.270;2023-05-31T19:22:47;21.20;36.20
46752;DHT22;32497;48.936;9.270;2023-05-31T19:27:49;21.10;37.00
46752;DHT22;32497;48.936;9.270;2023-05-31T19:38:01;20.70;37.50
46752;DHT22;32497;48.936;9.270;2023-05-31T19:43:04;20.40;37.40
46752;DHT22;32497;48.936;9.270;2023-05-31T19:48:05;20.40;38.20
46752;DHT22;32497;48.936;9.270;2023-05-31T19:53:06;20.20;37.80
46752;DHT22;32497;48.936;9.270;2023-05-31T19:58:09;20.40;39.90
46752;DHT22;32497;48.936;9.270;2023-05-31T20:03:10;20.30;39.20
46752;DHT22;32497;48.936;9.270;2023-05-31T20:08:11;20.20;37.80
46752;DHT22;32497;48.936;9.270;2023-05-31T20:13:13;20.00;38.10
46752;DHT22;32497;48.936;9.270;2023-05-31T20:18:14;20.00;38.20
46752;DHT22;32497;48.936;9.270;2023-05-31T20:23:15;20.10;37.80
46752;DHT22;32497;48.936;9.270;2023-05-31T20:28:18;20.00;38.10
46752;DHT22;32497;48.936;9.270;2023-05-31T20:33:19;19.90;38.50
46752;DHT22;32497;48.936;9.270;2023-05-31T20:38:20;19.70;38.40
46752;DHT22;32497;48.936;9.270;2023-05-31T20:43:23;19.60;39.50
46752;DHT22;32497;48.936;9.270;2023-05-31T20:48:24;19.60;39.10
46752;DHT22;32497;48.936;9.270;2023-05-31T20:53:25;19.40;39.10
46752;DHT22;32497;48.936;9.270;2023-05-31T20:58:27;19.30;40.60
46752;DHT22;32497;48.936;9.270;2023-05-31T21:03:28;19.20;40.00
46752;DHT22;32497;48.936;9.270;2023-05-31T21:08:29;19.10;40.20
46752;DHT22;32497;48.936;9.270;2023-05-31T21:13:32;19.10;40.40
46752;DHT22;32497;48.936;9.270;2023-05-31T21:18:33;19.10;39.60
46752;DHT22;32497;48.936;9.270;2023-05-31T21:23:34;19.10;40.20
46752;DHT22;32497;48.936;9.270;2023-05-31T21:28:37;19.20;39.50
46752;DHT22;32497;48.936;9.270;2023-05-31T21:33:38;19.10;39.50
46752;DHT22;32497;48.936;9.270;2023-05-31T21:38:39;19.10;40.30
46752;DHT22;32497;48.936;9.270;2023-05-31T21:43:42;19.00;40.40
46752;DHT22;32497;48.936;9.270;2023-05-31T21:48:43;18.90;40.10
46752;DHT22;32497;48.936;9.270;2023-05-31T21:53:44;18.90;40.90
46752;DHT22;32497;48.936;9.270;2023-05-31T21:58:46;18.80;40.90
46752;DHT22;32497;48.936;9.270;2023-05-31T22:03:47;18.70;42.50
46752;DHT22;32497;48.936;9.270;2023-05-31T22:08:48;18.50;44.30
46752;DHT22;32497;48.936;9.270;2023-05-31T22:13:51;18.10;45.50
46752;DHT22;32497;48.936;9.270;2023-05-31T22:18:52;17.60;46.30
46752;DHT22;32497;48.936;9.270;2023-05-31T22:23:53;17.20;46.90
46752;DHT22;32497;48.936;9.270;2023-05-31T22:28:56;17.10;48.00
46752;DHT22;32497;48.936;9.270;2023-05-31T22:33:57;17.10;47.90
46752;DHT22;32497;48.936;9.270;2023-05-31T22:38:58;17.10;46.70
46752;DHT22;32497;48.936;9.270;2023-05-31T22:44:00;17.40;46.40
46752;DHT22;32497;48.936;9.270;2023-05-31T22:49:02;17.40;45.70
46752;DHT22;32497;48.936;9.270;2023-05-31T22:54:03;17.30;47.90
46752;DHT22;32497;48.936;9.270;2023-05-31T22:59:05;16.80;50.80
46752;DHT22;32497;48.936;9.270;2023-05-31T23:04:06;16.50;52.30
46752;DHT22;32497;48.936;9.270;2023-05-31T23:09:08;16.20;53.10
46752;DHT22;32497;48.936;9.270;2023-05-31T23:14:10;16.10;52.30
46752;DHT22;32497;48.936;9.270;2023-05-31T23:19:11;16.20;51.60
46752;DHT22;32497;48.936;9.270;2023-05-31T23:24:12;16.20;52.10
46752;DHT22;32497;48.936;9.270;2023-05-31T23:29:15;16.20;52.90
46752;DHT22;32497;48.936;9.270;2023-05-31T23:34:16;16.20;53.10
46752;DHT22;32497;48.936;9.270;2023-05-31T23:39:17;16.00;52.80
46752;DHT22;32497;48.936;9.270;2023-05-31T23:44:19;16.00;52.40
46752;DHT22;32497;48.936;9.270;2023-05-31T23:49:21;15.90;52.90
46752;DHT22;32497;48.936;9.270;2023-05-31T23:54:22;15.90;54.50
46752;DHT22;32497;48.936;9.270;2023-05-31T23:59:24;15.70;54.80
